Time;durP1;ratioP1;P1;durP2;ratioP2;P2;SDS_P1;SDS_P2;PMS_P1;PMS_P2;Temp;Humidity;BMP_temperature;BMP_pressure;BME280_temperature;BME280_humidity;BME280_pressure;Samples;Min_cycle;Max_cycle;Signal;HPM_P1;HPM_P2
2022/04/20 00:02:04;;;;;;;3.78;2.22;;;12.70;72.70;;;;;;5133156;27;20023;-66
2022/04/20 00:04:30;;;;;;;5.25;2.08;;;12.70;72.70;;;;;;5130864;27;20126;-66
2022/04/20 00:06:55;;;;;;;6.65;2.10;;;12.70;73.40;;;;;;5132714;27;20441;-66
2022/04/20 00:09:21;;;;;;;6.97;3.33;;;12.70;73.00;;;;;;5132762;27;20561;-66
2022/04/20 00:11:47;;;;;;;5.18;2.53;;;12.70;73.10;;;;;;5131919;27;20027;-66
2022/04/20 00:14:13;;;;;;;5.05;2.05;;;12.70;73.00;;;;;;5119794;27;20111;-66
2022/04/20 00:16:38;;;;;;;6.80;2.50;;;12.60;73.00;;;;;;5127760;27;20076;-66
2022/04/20 00:19:04;;;;;;;6.03;2.22;;;12.60;73.10;;;;;;5113937;27;20019;-66
2022/04/20 00:21:30;;;;;;;3.45;2.33;;;12.60;73.10;;;;;;5119198;27;20536;-66
2022/04/20 00:23:55;;;;;;;7.88;3.00;;;12.50;73.10;;;;;;5131933;27;20027;-66
2022/04/20 00:26:22;;;;;;;3.65;2.30;;;12.50;73.20;;;;;;5123108;27;20359;-66
2022/04/20 00:28:47;;;;;;;3.95;2.03;;;12.50;73.30;;;;;;5113469;27;20047;-66
2022/04/20 00:31:13;;;;;;;3.92;2.22;;;12.50;73.40;;;;;;5113849;27;20546;-66
2022/04/20 00:33:39;;;;;;;5.88;2.40;;;12.40;73.40;;;;;;5112251;27;20445;-66
2022/04/20 00:36:09;;;;;;;6.93;2.60;;;12.40;73.40;;;;;;5128041;27;20521;-66
2022/04/20 00:38:35;;;;;;;4.25;2.30;;;12.40;73.60;;;;;;5132250;27;20051;-66
2022/04/20 00:41:01;;;;;;;3.90;2.10;;;12.40;73.60;;;;;;5113119;27;20026;-66
2022/04/20 00:43:28;;;;;;;4.00;2.60;;;12.40;73.60;;;;;;5131723;27;20031;-66
2022/04/20 00:45:54;;;;;;;5.57;2.33;;;12.30;73.60;;;;;;5131930;27;20062;-66
2022/04/20 00:48:21;;;;;;;5.55;2.13;;;12.30;73.70;;;;;;5111673;28;20525;-66
2022/04/20 00:50:49;;;;;;;3.70;2.30;;;12.30;73.80;;;;;;5108957;27;20045;-66
2022/04/20 00:53:15;;;;;;;5.05;2.30;;;12.30;73.80;;;;;;5096904;28;20561;-66
2022/04/20 00:55:41;;;;;;;8.15;2.60;;;12.20;73.80;;;;;;5108727;27;20034;-66
2022/04/20 00:58:09;;;;;;;5.57;2.65;;;12.20;73.80;;;;;;5110104;27;20107;-66
2022/04/20 01:00:36;;;;;;;8.88;2.95;;;12.20;73.90;;;;;;5111437;27;20024;-66
2022/04/20 01:03:02;;;;;;;4.75;2.42;;;12.20;74.00;;;;;;5113526;28;20375;-66
2022/04/20 01:05:48;;;;;;;4.95;2.40;;;12.20;74.00;;;;;;5109655;28;20489;-66
2022/04/20 01:08:32;;;;;;;5.05;2.28;;;12.10;74.10;;;;;;5106596;28;20124;-66
2022/04/20 01:11:18;;;;;;;8.90;2.75;;;12.10;74.20;;;;;;5089532;28;20035;-66
2022/04/20 01:13:57;;;;;;;5.05;2.90;;;12.10;74.30;;;;;;5112262;28;20027;-66
2022/04/20 01:16:40;;;;;;;6.93;2.60;;;12.00;74.30;;;;;;5115623;27;20019;-66
2022/04/20 01:19:16;;;;;;;4.57;2.58;;;12.00;74.50;;;;;;5135977;27;20030;-66
2022/04/20 01:21:52;;;;;;;14.10;2.30;;;11.90;74.60;;;;;;5116584;27;20019;-66
2022/04/20 01:24:37;;;;;;;5.55;2.53;;;11.90;74.80;;;;;;5132729;27;20066;-66
2022/04/20 01:27:23;;;;;;;6.78;2.72;;;11.90;74.80;;;;;;5126767;27;20402;-66
2022/04/20 01:29:55;;;;;;;6.07;2.42;;;11.80;74.80;;;;;;5135005;27;20045;-66
2022/04/20 01:32:48;;;;;;;4.13;2.13;;;11.80;74.90;;;;;;5135323;27;20012;-66
2022/04/20 01:35:21;;;;;;;4.90;2.70;;;11.80;75.10;;;;;;5117736;27;20432;-66
2022/04/20 01:37:47;;;;;;;3.60;2.13;;;11.80;75.10;;;;;;5115967;27;20023;-66
2022/04/20 01:40:13;;;;;;;5.53;2.08;;;11.80;75.20;;;;;;5135758;27;20390;-66
2022/04/20 01:42:39;;;;;;;4.20;2.55;;;11.70;75.30;;;;;;5116190;27;20024;-66
2022/04/20 01:45:08;;;;;;;3.72;2.22;;;11.70;75.40;;;;;;5116918;27;20465;-65
2022/04/20 01:47:41;;;;;;;4.38;2.50;;;11.70;75.40;;;;;;5109871;28;20039;-66
2022/04/20 01:50:25;;;;;;;5.38;2.53;;;11.60;75.40;;;;;;5130533;27;20088;-66
2022/04/20 01:53:12;;;;;;;4.00;2.33;;;11.70;75.50;;;;;;5117032;27;20154;-66
2022/04/20 01:56:06;;;;;;;6.22;2.63;;;11.70;75.50;;;;;;5103272;27;20100;-66
2022/04/20 01:58:51;;;;;;;4.47;2.22;;;11.70;75.60;;;;;;5126429;27;20502;-66
2022/04/20 02:04:18;;;;;;;4.40;2.30;;;11.60;75.70;;;;;;5117837;27;20118;-66
2022/04/20 02:06:44;;;;;;;3.65;2.45;;;11.60;75.70;;;;;;5098989;27;20030;-66
2022/04/20 02:09:13;;;;;;;6.60;2.40;;;11.60;75.70;;;;;;5110330;28;20044;-67
2022/04/20 02:11:46;;;;;;;4.78;2.08;;;11.60;75.70;;;;;;5109821;27;20027;-67
2022/04/20 02:14:18;;;;;;;3.50;2.25;;;11.50;75.80;;;;;;5107938;28;20031;-66
2022/04/20 02:16:50;;;;;;;4.65;2.60;;;11.50;75.90;;;;;;5119590;27;20122;-66
2022/04/20 02:19:31;;;;;;;4.07;2.55;;;11.50;76.00;;;;;;5095617;28;20066;-67
2022/04/20 02:22:08;;;;;;;4.88;2.38;;;11.50;76.00;;;;;;5095930;28;20032;-67
2022/04/20 02:24:36;;;;;;;5.95;2.08;;;11.50;76.10;;;;;;5114205;28;20435;-66
2022/04/20 02:27:02;;;;;;;4.90;2.17;;;11.50;76.20;;;;;;5101058;27;20027;-66
2022/04/20 02:29:28;;;;;;;4.43;2.25;;;11.40;76.20;;;;;;5109249;27;20031;-66
2022/04/20 02:31:54;;;;;;;4.75;2.42;;;11.40;76.30;;;;;;5115052;27;20024;-67
2022/04/20 02:34:21;;;;;;;5.30;2.60;;;11.40;76.40;;;;;;5129753;27;20467;-66
2022/04/20 02:36:46;;;;;;;7.22;2.40;;;11.30;76.40;;;;;;5116063;27;20031;-66
2022/04/20 02:39:12;;;;;;;4.60;2.38;;;11.30;76.40;;;;;;5133793;27;20031;-66
2022/04/20 02:41:40;;;;;;;3.70;2.40;;;11.30;76.50;;;;;;5120975;27;20071;-66
2022/04/20 02:44:06;;;;;;;4.53;2.28;;;11.30;76.60;;;;;;5115613;27;20043;-66
2022/04/20 02:46:33;;;;;;;4.07;2.65;;;11.30;76.70;;;;;;5115032;27;20055;-66
2022/04/20 02:48:58;;;;;;;5.47;2.70;;;11.20;76.70;;;;;;5115573;27;20031;-66
2022/04/20 02:51:24;;;;;;;5.97;2.72;;;11.20;76.80;;;;;;5115868;27;20027;-66
2022/04/20 02:53:51;;;;;;;4.28;2.58;;;11.20;77.00;;;;;;5114688;27;20031;-66
2022/04/20 02:56:17;;;;;;;5.30;2.33;;;11.20;77.10;;;;;;5115875;27;20030;-66
2022/04/20 02:58:46;;;;;;;8.07;2.38;;;11.10;77.20;;;;;;5113030;27;20371;-65
2022/04/20 03:01:11;;;;;;;3.22;2.15;;;11.10;77.30;;;;;;5133494;27;20035;-66
2022/04/20 03:03:41;;;;;;;6.32;2.90;;;11.10;77.40;;;;;;5115339;27;20023;-66
2022/04/20 03:06:32;;;;;;;4.10;2.30;;;11.10;77.50;;;;;;5126021;27;20039;-66
2022/04/20 03:09:04;;;;;;;4.10;2.67;;;11.00;77.50;;;;;;5114712;27;20062;-66
2022/04/20 03:11:33;;;;;;;4.05;2.40;;;11.00;77.70;;;;;;5115161;27;20055;-66
2022/04/20 03:13:59;;;;;;;6.25;2.72;;;11.00;77.90;;;;;;5133750;27;20069;-66
2022/04/20 03:16:24;;;;;;;6.78;2.40;;;11.00;78.00;;;;;;5114325;27;20027;-66
2022/04/20 03:18:51;;;;;;;3.97;2.50;;;10.90;78.10;;;;;;5107035;28;20055;-66
2022/04/20 03:21:22;;;;;;;7.65;2.50;;;10.90;78.30;;;;;;5111167;27;20027;-66
2022/04/20 03:23:51;;;;;;;4.18;2.50;;;10.90;78.50;;;;;;5115108;27;20024;-66
2022/04/20 03:26:25;;;;;;;5.50;2.53;;;10.90;78.60;;;;;;5114309;27;20027;-66
2022/04/20 03:29:11;;;;;;;4.93;2.38;;;10.80;78.60;;;;;;5114522;27;20039;-65
2022/04/20 03:31:39;;;;;;;7.20;2.70;;;10.80;78.70;;;;;;5133414;27;20050;-66
2022/04/20 03:34:06;;;;;;;8.10;2.45;;;10.80;78.70;;;;;;5114677;27;20402;-66
2022/04/20 03:36:34;;;;;;;4.68;2.80;;;10.80;78.80;;;;;;5112566;27;20031;-66
2022/04/20 03:39:00;;;;;;;8.32;2.95;;;10.80;78.80;;;;;;5131751;27;20371;-66
2022/04/20 03:41:26;;;;;;;5.50;2.65;;;10.80;78.90;;;;;;5131468;27;20019;-66
2022/04/20 03:43:52;;;;;;;5.72;2.90;;;10.70;78.80;;;;;;5130855;27;20381;-66
2022/04/20 03:46:17;;;;;;;3.83;2.38;;;10.70;78.90;;;;;;5131285;27;20050;-66
2022/04/20 03:48:44;;;;;;;4.10;2.40;;;10.80;79.00;;;;;;5131337;27;20138;-66
2022/04/20 03:51:10;;;;;;;9.32;2.60;;;10.70;79.10;;;;;;5112130;27;20084;-65
2022/04/20 03:53:36;;;;;;;7.43;3.00;;;10.70;79.20;;;;;;5112908;27;20034;-66
2022/04/20 03:56:04;;;;;;;4.40;2.50;;;10.70;79.40;;;;;;5112580;27;20023;-65
2022/04/20 03:58:31;;;;;;;9.65;2.63;;;10.60;79.40;;;;;;5112013;27;20566;-65
2022/04/20 04:00:56;;;;;;;4.38;2.83;;;10.60;79.60;;;;;;5112640;27;20114;-66
2022/04/20 04:03:22;;;;;;;4.13;2.38;;;10.60;79.60;;;;;;5111710;27;20455;-65
2022/04/20 04:05:51;;;;;;;4.32;2.42;;;10.60;79.70;;;;;;5111064;27;20085;-65
2022/04/20 04:08:20;;;;;;;4.30;2.30;;;10.50;79.70;;;;;;5106173;27;20375;-65
2022/04/20 04:10:46;;;;;;;5.50;2.50;;;10.50;79.80;;;;;;5100473;27;20077;-66
2022/04/20 04:13:13;;;;;;;6.32;3.00;;;10.50;79.90;;;;;;5114314;27;20080;-65
2022/04/20 04:15:43;;;;;;;12.65;3.03;;;10.50;80.00;;;;;;5113946;27;20032;-65
2022/04/20 04:18:10;;;;;;;4.20;2.45;;;10.40;79.90;;;;;;5112775;27;20167;-66
2022/04/20 04:20:45;;;;;;;4.53;2.78;;;10.40;80.60;;;;;;5112444;27;20608;-65
2022/04/20 04:23:13;;;;;;;5.38;2.42;;;10.40;80.00;;;;;;5110576;27;20118;-65
2022/04/20 04:25:39;;;;;;;4.93;2.90;;;10.40;80.10;;;;;;5128318;27;20445;-65
2022/04/20 04:28:06;;;;;;;5.60;2.55;;;10.40;80.20;;;;;;5112138;27;20039;-65
2022/04/20 04:30:34;;;;;;;4.55;2.80;;;10.40;80.30;;;;;;5112142;27;20019;-65
2022/04/20 04:33:03;;;;;;;4.40;2.63;;;10.40;80.30;;;;;;5112994;27;20454;-65
2022/04/20 04:35:30;;;;;;;5.10;2.80;;;10.40;80.30;;;;;;5113931;27;20062;-65
2022/04/20 04:37:57;;;;;;;5.72;3.17;;;10.30;80.30;;;;;;5109410;28;20072;-65
2022/04/20 04:40:26;;;;;;;4.95;2.60;;;10.40;80.30;;;;;;5092689;28;20032;-66
2022/04/20 04:42:52;;;;;;;5.38;3.30;;;10.30;80.30;;;;;;5111632;28;20076;-67
2022/04/20 04:51:06;;;;;;;7.38;2.72;;;10.30;80.40;;;;;;5111920;27;20486;-66
2022/04/20 04:53:32;;;;;;;5.07;3.05;;;10.30;80.60;;;;;;5112632;27;20087;-64
2022/04/20 04:55:59;;;;;;;7.63;2.58;;;10.30;80.70;;;;;;5112281;28;20049;-68
2022/04/20 04:58:25;;;;;;;7.55;2.95;;;10.20;80.80;;;;;;5111789;27;20453;-67
2022/04/20 05:00:53;;;;;;;4.88;2.63;;;10.20;80.90;;;;;;5111749;27;20370;-65
2022/04/20 05:03:23;;;;;;;4.53;2.92;;;10.20;81.10;;;;;;5111290;28;20046;-65
2022/04/20 05:05:49;;;;;;;4.82;3.08;;;10.20;81.20;;;;;;5110172;28;20030;-66
2022/04/20 05:08:27;;;;;;;4.88;2.83;;;10.20;81.40;;;;;;5108952;28;20043;-66
2022/04/20 05:10:53;;;;;;;5.45;2.60;;;10.10;81.50;;;;;;5112012;28;20068;-67
2022/04/20 05:13:19;;;;;;;5.40;3.10;;;10.10;81.60;;;;;;5112988;28;20031;-66
2022/04/20 05:15:44;;;;;;;7.55;3.38;;;10.10;81.90;;;;;;5112581;28;20096;-67
2022/04/20 05:18:10;;;;;;;5.85;3.13;;;10.10;82.00;;;;;;5110689;28;20045;-68
2022/04/20 05:20:36;;;;;;;5.53;3.28;;;10.10;82.20;;;;;;5111577;28;20023;-65
2022/04/20 05:23:05;;;;;;;7.13;2.95;;;10.10;82.40;;;;;;5110555;28;20039;-65
2022/04/20 05:25:31;;;;;;;6.50;3.00;;;10.10;82.60;;;;;;5109334;28;20027;-65
2022/04/20 05:27:56;;;;;;;4.68;2.88;;;10.10;82.70;;;;;;5108904;28;20031;-65
2022/04/20 05:30:28;;;;;;;4.60;3.15;;;10.10;82.90;;;;;;5109638;28;20470;-65
2022/04/20 05:32:56;;;;;;;7.47;3.40;;;10.00;83.10;;;;;;5107382;28;20055;-66
2022/04/20 05:35:25;;;;;;;5.63;3.47;;;10.00;83.20;;;;;;5110141;28;20793;-65
2022/04/20 05:43:33;;;;;;;4.45;2.78;;;10.00;83.70;;;;;;5127354;28;20035;-66
2022/04/20 05:45:59;;;;;;;6.55;3.40;;;10.00;83.90;;;;;;5128450;28;20046;-67
2022/04/20 05:48:57;;;;;;;8.10;3.60;;;10.00;84.10;;;;;;5105647;28;20081;-66
2022/04/20 05:51:24;;;;;;;6.43;2.90;;;10.10;84.40;;;;;;5109225;28;20074;-68
2022/04/20 05:53:50;;;;;;;6.80;3.40;;;10.10;84.60;;;;;;5127993;28;20030;-64
2022/04/20 05:56:16;;;;;;;6.57;3.13;;;10.10;84.80;;;;;;5112158;28;20029;-65
2022/04/20 05:58:50;;;;;;;6.28;3.35;;;10.00;85.00;;;;;;5095521;28;20015;-65
2022/04/20 06:01:17;;;;;;;6.50;2.92;;;10.00;84.90;;;;;;5105284;27;20031;-65
2022/04/20 06:03:43;;;;;;;5.35;2.92;;;10.10;84.90;;;;;;5134170;27;20034;-65
2022/04/20 06:06:28;;;;;;;9.40;2.92;;;10.10;84.80;;;;;;5133367;27;20042;-65
2022/04/20 06:08:55;;;;;;;6.70;3.67;;;10.10;84.50;;;;;;5105710;27;20041;-65
2022/04/20 06:11:40;;;;;;;;;;;10.20;84.40;;;;;;5134395;27;20018;-65
2022/04/20 06:14:07;;;;;;;6.78;3.67;;;10.20;84.20;;;;;;5116456;27;19907;-65
2022/04/20 06:16:46;;;;;;;5.80;3.28;;;10.20;84.00;;;;;;5104093;27;20035;-66
2022/04/20 06:19:17;;;;;;;7.60;3.50;;;10.30;84.20;;;;;;5121271;27;20157;-65
2022/04/20 06:22:03;;;;;;;6.47;2.88;;;10.30;84.30;;;;;;5105072;28;20042;-65
2022/04/20 06:25:08;;;;;;;;;;;10.30;84.30;;;;;;5106320;27;20509;-65
2022/04/20 06:27:34;;;;;;;7.10;2.90;;;10.30;84.20;;;;;;5127680;27;19927;-65
2022/04/20 06:30:18;;;;;;;6.05;2.67;;;10.30;83.80;;;;;;5121406;27;20505;-65
2022/04/20 06:32:56;;;;;;;6.32;2.83;;;10.30;83.50;;;;;;5102588;27;20039;-65
2022/04/20 06:35:40;;;;;;;6.50;3.42;;;10.40;83.60;;;;;;5134662;27;20093;-65
2022/04/20 06:38:24;;;;;;;5.10;1.67;;;10.40;83.60;;;;;;5121157;27;20031;-66
2022/04/20 06:41:19;;;;;;;9.98;2.47;;;10.50;83.60;;;;;;5116032;27;20076;-65
2022/04/20 06:43:45;;;;;;;3.53;2.28;;;10.50;83.20;;;;;;5134327;27;20272;-65
2022/04/20 06:46:17;;;;;;;9.23;3.03;;;10.50;83.20;;;;;;5133269;27;20520;-66
2022/04/20 06:49:01;;;;;;;4.68;2.50;;;10.60;82.90;;;;;;5115582;27;20168;-66
2022/04/20 07:00:11;;;;;;;8.88;3.55;;;10.70;82.80;;;;;;5114803;27;19914;-66
2022/04/20 07:03:15;;;;;;;7.43;2.50;;;10.70;82.80;;;;;;5030423;28;20500;-66
2022/04/20 07:05:44;;;;;;;6.72;3.10;;;10.80;82.70;;;;;;5030737;28;20036;-66
2022/04/20 07:08:45;;;;;;;6.28;2.83;;;10.70;82.40;;;;;;5072898;28;20040;-66
2022/04/20 07:11:20;;;;;;;7.47;3.88;;;10.80;82.50;;;;;;5108891;27;20059;-65
2022/04/20 07:13:50;;;;;;;5.82;2.63;;;10.80;82.30;;;;;;5114093;27;20027;-66
2022/04/20 07:16:16;;;;;;;6.20;2.65;;;11.00;82.50;;;;;;5114680;27;20031;-66
2022/04/20 07:18:49;;;;;;;3.40;2.05;;;11.00;82.30;;;;;;5115095;27;20042;-66
2022/04/20 07:21:39;;;;;;;5.65;2.70;;;11.00;82.50;;;;;;5104237;27;20085;-66
2022/04/20 07:24:22;;;;;;;;;;;11.00;82.70;;;;;;5108771;27;20039;-65
2022/04/20 07:26:59;;;;;;;5.40;3.08;;;11.10;82.70;;;;;;5132613;27;20006;-66
2022/04/20 07:29:32;;;;;;;5.20;2.67;;;11.20;82.30;;;;;;5093881;28;20142;-65
2022/04/20 07:31:58;;;;;;;2.78;1.65;;;11.30;82.00;;;;;;5133373;27;20023;-65
2022/04/20 07:34:38;;;;;;;7.20;2.33;;;11.30;82.00;;;;;;5120078;27;20108;-65
2022/04/20 07:37:23;;;;;;;5.25;3.13;;;11.30;82.10;;;;;;5133511;27;20058;-66
2022/04/20 07:40:15;;;;;;;5.70;2.70;;;11.40;81.50;;;;;;5101859;27;20103;-65
2022/04/20 07:42:54;;;;;;;1.30;1.20;;;11.50;81.00;;;;;;5132410;27;20066;-65
2022/04/20 07:45:32;;;;;;;3.90;1.98;;;11.50;81.30;;;;;;5114439;27;20042;-66
2022/04/20 07:48:23;;;;;;;4.00;2.22;;;11.60;81.10;;;;;;5121572;27;20515;-65
2022/04/20 07:51:07;;;;;;;2.75;1.52;;;11.70;80.60;;;;;;5133054;27;20054;-65
2022/04/20 07:53:41;;;;;;;4.15;2.45;;;11.70;80.80;;;;;;5133085;27;20107;-66
2022/04/20 07:56:29;;;;;;;4.03;2.53;;;11.70;80.30;;;;;;5113925;27;20030;-66
2022/04/20 07:59:11;;;;;;;5.85;2.70;;;11.80;80.00;;;;;;5113716;27;20041;-66
2022/04/20 08:01:42;;;;;;;7.18;2.05;;;11.80;80.70;;;;;;5114060;27;20540;-66
2022/04/20 08:04:37;;;;;;;2.50;1.75;;;11.90;80.60;;;;;;5132051;27;20083;-65
2022/04/20 08:07:09;;;;;;;7.35;2.35;;;11.90;80.00;;;;;;5112636;27;20075;-66
2022/04/20 08:09:37;;;;;;;6.63;2.20;;;11.90;80.20;;;;;;5113711;27;20046;-66
2022/04/20 08:12:03;;;;;;;6.07;2.40;;;12.00;80.70;;;;;;5114131;27;20114;-66
2022/04/20 08:14:30;;;;;;;5.00;2.13;;;12.00;80.10;;;;;;5112426;27;20034;-66
2022/04/20 08:17:03;;;;;;;5.55;2.20;;;12.00;80.20;;;;;;5109228;27;20550;-67
2022/04/20 08:19:29;;;;;;;4.95;2.20;;;12.10;80.50;;;;;;5130795;27;20031;-66
2022/04/20 08:22:13;;;;;;;4.43;2.13;;;12.20;79.90;;;;;;5110761;27;20543;-67
2022/04/20 08:24:38;;;;;;;3.90;2.30;;;12.20;79.80;;;;;;5130261;27;20398;-67
2022/04/20 08:27:04;;;;;;;4.35;2.20;;;12.20;79.50;;;;;;5118679;27;20039;-67
2022/04/20 08:29:30;;;;;;;4.97;2.20;;;12.30;79.60;;;;;;5125912;27;20043;-67
2022/04/20 08:31:55;;;;;;;3.92;2.20;;;12.30;78.90;;;;;;5130254;27;20862;-67
2022/04/20 08:34:24;;;;;;;0.68;0.63;;;12.40;78.40;;;;;;5127029;27;20080;-67
2022/04/20 08:36:50;;;;;;;4.28;2.08;;;12.40;79.20;;;;;;5129810;27;20501;-67
2022/04/20 08:39:16;;;;;;;4.43;1.63;;;12.50;79.60;;;;;;5125119;27;20035;-67
2022/04/20 08:41:49;;;;;;;3.53;1.20;;;12.50;79.60;;;;;;5130183;27;20161;-67
2022/04/20 08:44:23;;;;;;;4.78;2.08;;;12.60;80.00;;;;;;5128756;27;20047;-68
2022/04/20 08:46:49;;;;;;;6.45;2.00;;;12.60;77.90;;;;;;5128931;27;20047;-67
2022/04/20 08:49:15;;;;;;;5.47;2.00;;;12.70;78.20;;;;;;5130842;27;20043;-68
2022/04/20 08:54:31;;;;;;;6.13;1.63;;;12.80;77.70;;;;;;5128018;27;20378;-68
2022/04/20 08:57:15;;;;;;;3.67;1.90;;;12.90;77.70;;;;;;5130204;27;20503;-68
2022/04/20 08:59:43;;;;;;;3.28;1.90;;;13.00;77.80;;;;;;5129061;27;20367;-68
2022/04/20 09:02:11;;;;;;;3.08;1.60;;;13.00;77.30;;;;;;5130498;27;20466;-68
2022/04/20 09:04:36;;;;;;;3.47;1.88;;;13.10;76.70;;;;;;5130281;27;20023;-68
2022/04/20 09:07:03;;;;;;;3.65;1.90;;;13.20;76.00;;;;;;5129006;27;20530;-68
2022/04/20 09:09:30;;;;;;;6.00;2.20;;;13.20;75.40;;;;;;5129682;28;20378;-68
2022/04/20 09:11:59;;;;;;;4.13;1.58;;;13.30;74.80;;;;;;5129851;28;20042;-68
2022/04/20 09:14:29;;;;;;;3.17;1.63;;;13.40;74.60;;;;;;5131206;28;20481;-68
2022/04/20 09:16:55;;;;;;;1.55;1.45;;;13.30;74.60;;;;;;5130474;28;20038;-67
2022/04/20 09:19:25;;;;;;;2.90;1.60;;;13.50;75.00;;;;;;5131492;28;20058;-67
2022/04/20 09:21:55;;;;;;;6.25;1.70;;;13.50;73.90;;;;;;5129352;28;20031;-67
2022/04/20 09:24:21;;;;;;;4.38;1.65;;;13.50;73.60;;;;;;5129670;28;20028;-67
2022/04/20 09:26:57;;;;;;;1.95;1.30;;;13.50;74.80;;;;;;5129667;28;20068;-67
2022/04/20 09:29:23;;;;;;;5.13;1.70;;;13.50;74.60;;;;;;5128794;28;20367;-67
2022/04/20 09:31:51;;;;;;;2.40;1.63;;;13.50;74.60;;;;;;5129742;28;20031;-68
2022/04/20 09:34:35;;;;;;;3.10;1.50;;;13.60;76.10;;;;;;5129186;28;20046;-68
2022/04/20 09:37:13;;;;;;;2.58;1.33;;;13.70;74.70;;;;;;5130660;27;20035;-67
2022/04/20 09:39:44;;;;;;;2.95;1.55;;;13.70;74.20;;;;;;5134153;27;20046;-68
2022/04/20 09:42:10;;;;;;;1.58;1.15;;;13.80;74.20;;;;;;5132912;27;20056;-67
2022/04/20 09:44:40;;;;;;;2.72;1.17;;;13.80;74.40;;;;;;5133621;27;20023;-68
2022/04/20 09:50:01;;;;;;;4.80;1.45;;;13.90;75.30;;;;;;5132430;27;20109;-68
2022/04/20 09:52:47;;;;;;;4.20;1.98;;;14.00;75.00;;;;;;5133069;27;20031;-67
2022/04/20 09:55:25;;;;;;;5.40;1.73;;;14.00;75.40;;;;;;5133715;27;20043;-67
2022/04/20 09:57:51;;;;;;;3.38;1.60;;;14.10;75.40;;;;;;5122648;27;20040;-67
2022/04/20 10:00:16;;;;;;;2.88;1.58;;;14.00;74.60;;;;;;5133763;27;20038;-67
2022/04/20 10:03:21;;;;;;;2.45;1.50;;;14.00;75.30;;;;;;5134696;27;20031;-69
2022/04/20 10:05:47;;;;;;;2.95;1.52;;;14.00;75.50;;;;;;5126567;27;20037;-69
2022/04/20 10:08:13;;;;;;;2.33;1.63;;;13.90;74.80;;;;;;5123788;27;20382;-66
2022/04/20 10:10:39;;;;;;;2.55;1.75;;;13.90;73.20;;;;;;5132337;27;20462;-66
2022/04/20 10:13:05;;;;;;;7.22;1.40;;;14.00;72.90;;;;;;5133649;27;20034;-66
2022/04/20 10:18:20;;;;;;;4.13;1.45;;;14.10;72.30;;;;;;5131776;27;20496;-66
2022/04/20 10:20:54;;;;;;;3.67;1.58;;;14.20;72.20;;;;;;5133614;27;20031;-66
2022/04/20 10:23:22;;;;;;;1.80;1.40;;;14.20;74.40;;;;;;5133867;27;20118;-65
2022/04/20 10:25:53;;;;;;;2.05;1.48;;;14.30;73.90;;;;;;5134009;27;20035;-66
2022/04/20 10:28:53;;;;;;;3.80;1.23;;;14.30;73.60;;;;;;5134187;27;20035;-66
2022/04/20 10:31:40;;;;;;;1.73;1.15;;;14.40;73.80;;;;;;5133931;27;20027;-66
2022/04/20 10:34:15;;;;;;;1.85;1.40;;;14.40;74.30;;;;;;5114224;27;20027;-66
2022/04/20 10:36:58;;;;;;;1.15;0.88;;;14.50;72.80;;;;;;5115276;27;20027;-66
2022/04/20 10:39:26;;;;;;;2.40;1.05;;;14.60;72.80;;;;;;5118976;27;20031;-66
2022/04/20 10:42:11;;;;;;;0.95;0.82;;;14.60;72.70;;;;;;5134299;27;20423;-66
2022/04/20 10:44:55;;;;;;;2.60;1.30;;;14.70;73.80;;;;;;5130481;27;20394;-66
2022/04/20 10:47:25;;;;;;;3.42;1.50;;;14.70;74.00;;;;;;5133150;27;20039;-69
2022/04/20 10:49:51;;;;;;;0.95;0.88;;;14.80;73.10;;;;;;5132536;27;20052;-68
2022/04/20 10:52:35;;;;;;;1.10;0.80;;;14.80;73.30;;;;;;5133379;27;20394;-66
2022/04/20 10:55:04;;;;;;;1.27;0.95;;;14.90;76.30;;;;;;5113695;27;20031;-66
2022/04/20 10:57:34;;;;;;;2.17;1.13;;;14.90;75.60;;;;;;5116126;27;20126;-66
2022/04/20 11:00:19;;;;;;;1.55;1.30;;;15.00;73.90;;;;;;5130459;27;20070;-66
2022/04/20 11:02:55;;;;;;;1.38;1.02;;;15.00;74.30;;;;;;5134030;27;20534;-66
2022/04/20 11:05:22;;;;;;;1.40;0.95;;;15.00;75.00;;;;;;5121263;27;20043;-66
2022/04/20 11:08:14;;;;;;;1.20;1.10;;;15.00;75.40;;;;;;5122211;27;20031;-68
2022/04/20 11:19:16;;;;;;;1.77;1.23;;;15.10;73.80;;;;;;5113508;27;20024;-69
2022/04/20 11:22:08;;;;;;;2.47;1.08;;;15.20;73.80;;;;;;5113791;27;20026;-67
2022/04/20 11:24:34;;;;;;;1.30;1.15;;;15.20;73.40;;;;;;5133710;27;20588;-67
2022/04/20 11:27:00;;;;;;;3.25;1.20;;;15.30;73.20;;;;;;5132843;27;20054;-67
2022/04/20 11:29:28;;;;;;;0.82;0.82;;;15.30;71.70;;;;;;5132852;27;20046;-68
2022/04/20 11:32:03;;;;;;;1.75;1.13;;;15.40;74.30;;;;;;5132165;27;20474;-66
2022/04/20 11:34:41;;;;;;;2.97;1.20;;;15.40;74.10;;;;;;5114173;27;20167;-67
2022/04/20 11:37:07;;;;;;;1.65;1.15;;;15.50;74.30;;;;;;5133433;27;20031;-66
2022/04/20 11:39:34;;;;;;;8.82;1.50;;;15.50;73.60;;;;;;5133420;27;20148;-66
2022/04/20 11:42:02;;;;;;;0.52;0.52;;;15.50;72.60;;;;;;5132784;27;20015;-66
2022/04/20 11:44:29;;;;;;;1.38;1.15;;;15.60;74.90;;;;;;5133113;27;20037;-66
2022/04/20 11:47:17;;;;;;;2.63;1.08;;;15.60;74.40;;;;;;5131232;27;20046;-66
2022/04/20 11:49:49;;;;;;;2.35;1.20;;;15.70;73.30;;;;;;5122257;27;20443;-67
2022/04/20 11:52:26;;;;;;;1.27;0.90;;;15.80;73.70;;;;;;5113773;27;20027;-68
2022/04/20 11:55:12;;;;;;;2.45;0.98;;;15.80;73.70;;;;;;5130090;27;20080;-68
2022/04/20 11:57:39;;;;;;;1.70;1.08;;;15.90;73.30;;;;;;5099583;27;20533;-68
2022/04/20 12:00:05;;;;;;;3.53;1.40;;;16.00;74.00;;;;;;5131376;27;20098;-67
2022/04/20 12:02:38;;;;;;;1.45;1.20;;;16.00;73.00;;;;;;5130624;27;20046;-67
2022/04/20 12:05:09;;;;;;;1.15;1.05;;;16.00;73.70;;;;;;5113358;27;20047;-67
2022/04/20 12:07:36;;;;;;;1.48;0.98;;;16.00;72.60;;;;;;5130660;27;20035;-67
2022/04/20 12:10:03;;;;;;;2.40;1.30;;;16.00;73.10;;;;;;5129442;27;20106;-67
2022/04/20 12:12:30;;;;;;;1.30;0.90;;;16.00;73.60;;;;;;5130263;27;20053;-69
2022/04/20 12:15:05;;;;;;;1.77;1.10;;;16.00;73.70;;;;;;5131991;27;20398;-67
2022/04/20 12:17:31;;;;;;;3.20;1.58;;;16.00;73.30;;;;;;5130818;27;20023;-67
2022/04/20 12:19:57;;;;;;;3.40;1.58;;;16.10;72.00;;;;;;5132479;27;20030;-66
2022/04/20 12:22:23;;;;;;;3.80;1.85;;;16.10;73.90;;;;;;5132485;27;20065;-67
2022/04/20 12:25:11;;;;;;;5.30;1.58;;;16.10;74.10;;;;;;5126947;27;20044;-67
2022/04/20 12:27:55;;;;;;;2.30;1.40;;;16.10;71.90;;;;;;5108417;27;20769;-67
2022/04/20 12:30:47;;;;;;;12.63;2.88;;;16.10;72.90;;;;;;5132066;27;20486;-67
2022/04/20 12:33:25;;;;;;;6.55;3.10;;;16.20;74.30;;;;;;5120093;27;20436;-67
2022/04/20 12:36:12;;;;;;;3.70;2.22;;;16.10;76.30;;;;;;5113883;27;20026;-68
2022/04/20 12:38:52;;;;;;;7.07;2.08;;;16.10;76.50;;;;;;5113126;27;20412;-67
2022/04/20 12:41:45;;;;;;;6.57;2.53;;;16.10;77.40;;;;;;5113997;27;20023;-67
2022/04/20 12:44:36;;;;;;;3.95;2.17;;;16.10;77.80;;;;;;5131325;27;20106;-67
2022/04/20 12:47:02;;;;;;;7.05;2.55;;;16.00;78.40;;;;;;5132024;27;20039;-67
2022/04/20 12:49:28;;;;;;;7.78;2.97;;;15.90;78.40;;;;;;5131262;27;20047;-67
2022/04/20 12:52:25;;;;;;;8.80;3.42;;;15.90;78.00;;;;;;5131665;27;20073;-67
2022/04/20 12:54:55;;;;;;;12.35;3.25;;;15.90;78.40;;;;;;5131544;27;20039;-67
2022/04/20 13:03:17;;;;;;;10.15;2.53;;;16.00;78.60;;;;;;5126564;27;20050;-66
2022/04/20 13:05:46;;;;;;;10.10;2.60;;;16.00;79.30;;;;;;5126536;27;20053;-67
2022/04/20 13:08:14;;;;;;;12.48;3.08;;;16.00;79.70;;;;;;5128085;27;20051;-67
2022/04/20 13:10:45;;;;;;;7.78;2.30;;;16.00;79.70;;;;;;5127556;27;20070;-67
2022/04/20 13:13:11;;;;;;;8.27;2.40;;;16.00;80.00;;;;;;5127474;28;20066;-67
2022/04/20 13:15:40;;;;;;;8.48;2.60;;;16.00;79.90;;;;;;5109152;28;20527;-67
2022/04/20 13:18:09;;;;;;;7.97;2.97;;;16.10;79.80;;;;;;5128424;28;20019;-67
2022/04/20 13:20:35;;;;;;;9.18;2.60;;;16.00;79.30;;;;;;5127473;28;20062;-67
2022/04/20 13:23:01;;;;;;;7.32;2.92;;;16.00;78.80;;;;;;5127635;28;20058;-67
2022/04/20 13:28:12;;;;;;;5.30;2.83;;;16.00;79.00;;;;;;5124806;28;20118;-67
2022/04/20 13:30:39;;;;;;;11.50;2.72;;;16.00;78.80;;;;;;5128362;28;20110;-67
2022/04/20 13:33:11;;;;;;;8.65;2.85;;;16.00;79.00;;;;;;5125249;28;20042;-67
2022/04/20 13:35:38;;;;;;;13.23;3.28;;;16.10;79.00;;;;;;5128049;28;21289;-67
2022/04/20 13:38:07;;;;;;;7.38;2.83;;;16.00;79.00;;;;;;5126707;28;20449;-69
2022/04/20 13:40:34;;;;;;;9.20;2.80;;;16.00;78.90;;;;;;5122854;28;20436;-67
2022/04/20 13:43:01;;;;;;;9.10;3.28;;;16.10;79.00;;;;;;5123846;28;20031;-67
2022/04/20 13:45:28;;;;;;;7.88;2.40;;;16.10;78.30;;;;;;5128173;28;20035;-67
2022/04/20 13:47:53;;;;;;;7.85;2.95;;;16.00;78.60;;;;;;5127325;28;20047;-67
2022/04/20 13:50:21;;;;;;;6.10;3.50;;;16.10;78.50;;;;;;5109893;28;20023;-67
2022/04/20 13:52:48;;;;;;;7.57;2.70;;;16.10;79.10;;;;;;5110513;28;20043;-67
2022/04/20 13:55:15;;;;;;;6.18;3.05;;;16.10;79.10;;;;;;5127950;28;20563;-67
2022/04/20 13:57:41;;;;;;;6.55;2.70;;;16.10;78.60;;;;;;5128647;28;20023;-67
2022/04/20 14:00:09;;;;;;;7.68;3.00;;;16.10;78.80;;;;;;5128618;28;20047;-67
2022/04/20 14:02:38;;;;;;;7.63;2.58;;;16.10;78.30;;;;;;5126128;28;20077;-67